sensor_id;sensor_type;location;lat;lon;timestamp;pressure;altitude;pressure_sealevel;temperature;humidity
19890;BME280;10107;51.198;6.824;2023-04-26T00:01:46;-21424.56;;;3.95;100.00
19890;BME280;10107;51.198;6.824;2023-04-26T00:05:47;-21422.94;;;3.89;100.00
19890;BME280;10107;51.198;6.824;2023-04-26T00:09:50;-21422.00;;;3.85;100.00
19890;BME280;10107;51.198;6.824;2023-04-26T00:13:54;-21420.53;;;3.80;100.00
19890;BME280;10107;51.198;6.824;2023-04-26T00:17:56;-21419.75;;;3.76;100.00
19890;BME280;10107;51.198;6.824;2023-04-26T00:21:57;-21419.59;;;3.76;100.00
19890;BME280;10107;51.198;6.824;2023-04-26T00:25:59;-21418.66;;;3.72;100.00
19890;BME280;10107;51.198;6.824;2023-04-26T00:30:03;-21416.25;;;3.63;100.00
19890;BME280;10107;51.198;6.824;2023-04-26T00:34:05;-21414.78;;;3.57;100.00
19890;BME280;10107;51.198;6.824;2023-04-26T00:38:07;-21413.03;;;3.51;100.00
19890;BME280;10107;51.198;6.824;2023-04-26T00:42:09;-21410.91;;;3.43;100.00
19890;BME280;10107;51.198;6.824;2023-04-26T00:46:12;-21408.75;;;3.34;100.00
19890;BME280;10107;51.198;6.824;2023-04-26T00:50:14;-21406.88;;;3.27;100.00
19890;BME280;10107;51.198;6.824;2023-04-26T00:54:15;-21405.28;;;3.21;100.00
19890;BME280;10107;51.198;6.824;2023-04-26T00:58:19;-21404.22;;;3.17;100.00
19890;BME280;10107;51.198;6.824;2023-04-26T01:02:22;-21402.47;;;3.10;100.00
19890;BME280;10107;51.198;6.824;2023-04-26T01:06:24;-21400.72;;;3.04;100.00
19890;BME280;10107;51.198;6.824;2023-04-26T01:10:27;-21398.59;;;2.95;100.00
19890;BME280;10107;51.198;6.824;2023-04-26T01:14:31;-21396.44;;;2.87;100.00
19890;BME280;10107;51.198;6.824;2023-04-26T01:18:37;-21394.81;;;2.81;100.00
19890;BME280;10107;51.198;6.824;2023-04-26T01:22:40;-21392.94;;;2.74;100.00
19890;BME280;10107;51.198;6.824;2023-04-26T01:26:43;-21390.53;;;2.65;100.00
19890;BME280;10107;51.198;6.824;2023-04-26T01:30:47;-21389.59;;;2.61;100.00
19890;BME280;10107;51.198;6.824;2023-04-26T01:34:49;-21388.81;;;2.58;100.00
19890;BME280;10107;51.198;6.824;2023-04-26T01:38:53;-21386.66;;;2.50;100.00
19890;BME280;10107;51.198;6.824;2023-04-26T01:42:55;-21385.97;;;2.47;100.00
19890;BME280;10107;51.198;6.824;2023-04-26T01:46:57;-21385.31;;;2.45;100.00
19890;BME280;10107;51.198;6.824;2023-04-26T01:50:59;-21384.09;;;2.40;100.00
19890;BME280;10107;51.198;6.824;2023-04-26T01:55:02;-21382.75;;;2.35;100.00
19890;BME280;10107;51.198;6.824;2023-04-26T01:59:04;-21380.34;;;2.26;100.00
19890;BME280;10107;51.198;6.824;2023-04-26T02:03:06;-21379.53;;;2.23;100.00
19890;BME280;10107;51.198;6.824;2023-04-26T02:07:08;-21378.34;;;2.18;100.00
19890;BME280;10107;51.198;6.824;2023-04-26T02:11:20;-21377.00;;;2.13;100.00
19890;BME280;10107;51.198;6.824;2023-04-26T02:15:22;-21375.94;;;2.09;100.00
19890;BME280;10107;51.198;6.824;2023-04-26T02:19:24;-21374.84;;;2.05;100.00
19890;BME280;10107;51.198;6.824;2023-04-26T02:23:26;-21373.91;;;2.01;100.00
19890;BME280;10107;51.198;6.824;2023-04-26T02:27:29;-21372.69;;;1.96;100.00
19890;BME280;10107;51.198;6.824;2023-04-26T02:31:32;-21371.78;;;1.93;100.00
19890;BME280;10107;51.198;6.824;2023-04-26T02:35:34;-21370.97;;;1.90;100.00
19890;BME280;10107;51.198;6.824;2023-04-26T02:39:36;-21369.47;;;1.84;100.00
19890;BME280;10107;51.198;6.824;2023-04-26T02:43:39;-21369.63;;;1.85;100.00
19890;BME280;10107;51.198;6.824;2023-04-26T02:47:41;-21368.41;;;1.80;100.00
19890;BME280;10107;51.198;6.824;2023-04-26T02:51:42;-21366.81;;;1.74;100.00
19890;BME280;10107;51.198;6.824;2023-04-26T02:55:44;-21365.72;;;1.70;100.00
19890;BME280;10107;51.198;6.824;2023-04-26T02:59:47;-21364.66;;;1.66;100.00
19890;BME280;10107;51.198;6.824;2023-04-26T03:03:49;-21363.59;;;1.62;100.00
19890;BME280;10107;51.198;6.824;2023-04-26T03:07:51;-21362.38;;;1.57;100.00
19890;BME280;10107;51.198;6.824;2023-04-26T03:11:52;-21361.69;;;1.54;100.00
19890;BME280;10107;51.198;6.824;2023-04-26T03:15:56;-21361.56;;;1.54;100.00
19890;BME280;10107;51.198;6.824;2023-04-26T03:19:58;-21361.69;;;1.54;100.00
19890;BME280;10107;51.198;6.824;2023-04-26T03:24:01;-21360.50;;;1.50;100.00
19890;BME280;10107;51.198;6.824;2023-04-26T03:28:03;-21358.88;;;1.44;100.00
19890;BME280;10107;51.198;6.824;2023-04-26T03:32:08;-21357.53;;;1.38;100.00
19890;BME280;10107;51.198;6.824;2023-04-26T03:36:10;-21356.72;;;1.35;100.00
19890;BME280;10107;51.198;6.824;2023-04-26T03:40:12;-21357.28;;;1.37;100.00
19890;BME280;10107;51.198;6.824;2023-04-26T03:44:14;-21355.78;;;1.32;100.00
19890;BME280;10107;51.198;6.824;2023-04-26T03:48:17;-21354.59;;;1.27;100.00
19890;BME280;10107;51.198;6.824;2023-04-26T03:52:19;-21354.59;;;1.27;100.00
19890;BME280;10107;51.198;6.824;2023-04-26T03:56:23;-21354.31;;;1.26;100.00
19890;BME280;10107;51.198;6.824;2023-04-26T04:00:24;-21354.72;;;1.28;100.00
19890;BME280;10107;51.198;6.824;2023-04-26T04:04:27;-21352.97;;;1.21;100.00
19890;BME280;10107;51.198;6.824;2023-04-26T04:08:29;-21352.03;;;1.17;100.00
19890;BME280;10107;51.198;6.824;2023-04-26T04:12:31;-21351.91;;;1.17;100.00
19890;BME280;10107;51.198;6.824;2023-04-26T04:16:33;-21352.03;;;1.17;100.00
19890;BME280;10107;51.198;6.824;2023-04-26T04:20:36;-21351.91;;;1.17;100.00
19890;BME280;10107;51.198;6.824;2023-04-26T04:24:38;-21352.03;;;1.17;100.00
19890;BME280;10107;51.198;6.824;2023-04-26T04:28:41;-21352.56;;;1.19;100.00
19890;BME280;10107;51.198;6.824;2023-04-26T04:32:45;-21354.44;;;1.27;100.00
19890;BME280;10107;51.198;6.824;2023-04-26T04:36:49;-21356.59;;;1.35;100.00
19890;BME280;10107;51.198;6.824;2023-04-26T04:40:51;-21359.28;;;1.45;100.00
19890;BME280;10107;51.198;6.824;2023-04-26T04:44:53;-21361.84;;;1.55;100.00
19890;BME280;10107;51.198;6.824;2023-04-26T04:48:56;-21365.06;;;1.67;100.00
19890;BME280;10107;51.198;6.824;2023-04-26T04:52:59;-21367.22;;;1.75;100.00
19890;BME280;10107;51.198;6.824;2023-04-26T04:57:01;-21368.81;;;1.82;100.00
19890;BME280;10107;51.198;6.824;2023-04-26T05:01:05;-21371.50;;;1.92;100.00
19890;BME280;10107;51.198;6.824;2023-04-26T05:05:19;-21376.47;;;2.11;100.00
19890;BME280;10107;51.198;6.824;2023-04-26T05:09:22;-21382.38;;;2.33;100.00
19890;BME280;10107;51.198;6.824;2023-04-26T05:13:24;-21389.06;;;2.59;100.00
19890;BME280;10107;51.198;6.824;2023-04-26T05:17:26;-21395.09;;;2.82;100.00
19890;BME280;10107;51.198;6.824;2023-04-26T05:21:30;-21400.72;;;3.04;100.00
19890;BME280;10107;51.198;6.824;2023-04-26T05:25:36;-21406.88;;;3.27;100.00
19890;BME280;10107;51.198;6.824;2023-04-26T05:30:00;-21413.84;;;3.54;100.00
19890;BME280;10107;51.198;6.824;2023-04-26T05:34:22;-21421.22;;;3.82;100.00
19890;BME280;10107;51.198;6.824;2023-04-26T05:38:29;-21426.03;;;4.01;100.00
19890;BME280;10107;51.198;6.824;2023-04-26T05:42:32;-21431.63;;;4.22;100.00
19890;BME280;10107;51.198;6.824;2023-04-26T05:46:34;-21438.47;;;4.48;100.00
19890;BME280;10107;51.198;6.824;2023-04-26T05:50:36;-21500.78;;;6.88;100.00
19890;BME280;10107;51.198;6.824;2023-04-26T05:54:38;-21554.66;;;8.96;84.59
19890;BME280;10107;51.198;6.824;2023-04-26T05:58:41;-21529.81;;;8.00;87.58
19890;BME280;10107;51.198;6.824;2023-04-26T06:02:44;-21531.25;;;8.05;91.54
19890;BME280;10107;51.198;6.824;2023-04-26T06:06:50;-21643.13;;;12.38;72.01
19890;BME280;10107;51.198;6.824;2023-04-26T06:10:54;-21732.56;;;15.87;57.55
19890;BME280;10107;51.198;6.824;2023-04-26T06:14:57;-21792.97;;;18.23;48.02
19890;BME280;10107;51.198;6.824;2023-04-26T06:19:02;-21815.47;;;19.11;43.64
19890;BME280;10107;51.198;6.824;2023-04-26T06:23:04;-21817.03;;;19.17;40.47
19890;BME280;10107;51.198;6.824;2023-04-26T06:27:05;-21816.78;;;19.16;40.32
19890;BME280;10107;51.198;6.824;2023-04-26T06:31:10;-21864.34;;;21.04;35.45
19890;BME280;10107;51.198;6.824;2023-04-26T06:35:12;-21863.97;;;21.02;35.51
19890;BME280;10107;51.198;6.824;2023-04-26T06:39:14;-21852.88;;;20.58;35.04
19890;BME280;10107;51.198;6.824;2023-04-26T06:43:17;-21833.22;;;19.81;35.52
19890;BME280;10107;51.198;6.824;2023-04-26T06:47:40;-21839.59;;;20.06;36.39
19890;BME280;10107;51.198;6.824;2023-04-26T06:51:42;-21853.16;;;20.60;34.57
19890;BME280;10107;51.198;6.824;2023-04-26T06:55:43;-21841.94;;;20.15;35.13
19890;BME280;10107;51.198;6.824;2023-04-26T06:59:45;-21842.72;;;20.18;35.00
19890;BME280;10107;51.198;6.824;2023-04-26T07:03:49;-21847.41;;;20.37;35.43
19890;BME280;10107;51.198;6.824;2023-04-26T07:07:50;-21866.81;;;21.13;34.85
19890;BME280;10107;51.198;6.824;2023-04-26T07:11:52;-21845.72;;;20.30;34.82
19890;BME280;10107;51.198;6.824;2023-04-26T07:15:54;-21826.69;;;19.55;35.77
19890;BME280;10107;51.198;6.824;2023-04-26T07:19:57;-21820.41;;;19.31;35.63
19890;BME280;10107;51.198;6.824;2023-04-26T07:23:58;-21789.19;;;18.08;38.05
19890;BME280;10107;51.198;6.824;2023-04-26T07:28:00;-21766.00;;;17.17;39.00
19890;BME280;10107;51.198;6.824;2023-04-26T07:32:02;-21802.53;;;18.60;37.29
19890;BME280;10107;51.198;6.824;2023-04-26T07:36:06;-21848.47;;;20.41;34.84
19890;BME280;10107;51.198;6.824;2023-04-26T07:40:09;-21797.44;;;18.40;36.61
19890;BME280;10107;51.198;6.824;2023-04-26T07:44:11;-21758.16;;;16.87;38.78
19890;BME280;10107;51.198;6.824;2023-04-26T07:48:13;-21738.72;;;16.11;41.12
19890;BME280;10107;51.198;6.824;2023-04-26T07:52:16;-21740.19;;;16.16;42.19
19890;BME280;10107;51.198;6.824;2023-04-26T07:56:17;-21794.28;;;18.28;36.44
19890;BME280;10107;51.198;6.824;2023-04-26T08:00:19;-21798.88;;;18.46;36.42
19890;BME280;10107;51.198;6.824;2023-04-26T08:04:30;-21780.41;;;17.74;37.14
19890;BME280;10107;51.198;6.824;2023-04-26T08:08:34;-21716.78;;;15.25;41.05
19890;BME280;10107;51.198;6.824;2023-04-26T08:12:42;-21685.06;;;14.01;44.00
19890;BME280;10107;51.198;6.824;2023-04-26T08:16:43;-21683.09;;;13.94;44.01
19890;BME280;10107;51.198;6.824;2023-04-26T08:20:45;-21702.72;;;14.70;43.67
19890;BME280;10107;51.198;6.824;2023-04-26T08:24:48;-21721.78;;;15.44;42.19
19890;BME280;10107;51.198;6.824;2023-04-26T08:28:50;-21725.06;;;15.57;41.34
19890;BME280;10107;51.198;6.824;2023-04-26T08:32:52;-21724.69;;;15.56;40.27
19890;BME280;10107;51.198;6.824;2023-04-26T08:36:53;-21720.75;;;15.40;40.17
19890;BME280;10107;51.198;6.824;2023-04-26T08:40:58;-21739.25;;;16.13;39.19
19890;BME280;10107;51.198;6.824;2023-04-26T08:45:01;-21717.97;;;15.30;39.64
19890;BME280;10107;51.198;6.824;2023-04-26T08:49:11;-21701.41;;;14.65;41.60
19890;BME280;10107;51.198;6.824;2023-04-26T08:53:15;-21706.00;;;14.83;41.93
19890;BME280;10107;51.198;6.824;2023-04-26T08:57:19;-21722.84;;;15.49;41.45
19890;BME280;10107;51.198;6.824;2023-04-26T09:01:22;-21739.53;;;16.14;38.72
19890;BME280;10107;51.198;6.824;2023-04-26T09:05:26;-21776.63;;;17.59;35.95
19890;BME280;10107;51.198;6.824;2023-04-26T09:09:33;-21772.44;;;17.42;35.93
19890;BME280;10107;51.198;6.824;2023-04-26T09:13:38;-21722.19;;;15.46;37.23
19890;BME280;10107;51.198;6.824;2023-04-26T09:17:40;-21682.97;;;13.93;41.68
19890;BME280;10107;51.198;6.824;2023-04-26T09:21:43;-21699.97;;;14.59;42.13
19890;BME280;10107;51.198;6.824;2023-04-26T09:25:45;-21743.06;;;16.28;38.11
19890;BME280;10107;51.198;6.824;2023-04-26T09:29:59;-21735.06;;;15.96;37.58
19890;BME280;10107;51.198;6.824;2023-04-26T09:34:02;-21752.63;;;16.65;35.83
19890;BME280;10107;51.198;6.824;2023-04-26T09:38:05;-21827.72;;;19.59;32.28
19890;BME280;10107;51.198;6.824;2023-04-26T09:42:08;-21897.63;;;22.35;28.92
19890;BME280;10107;51.198;6.824;2023-04-26T09:46:21;-21841.81;;;20.15;29.42
19890;BME280;10107;51.198;6.824;2023-04-26T09:50:27;-21783.56;;;17.86;33.48
19890;BME280;10107;51.198;6.824;2023-04-26T09:54:40;-21742.81;;;16.27;36.21
19890;BME280;10107;51.198;6.824;2023-04-26T09:58:55;-21720.06;;;15.38;37.96
19890;BME280;10107;51.198;6.824;2023-04-26T10:02:59;-21712.31;;;15.08;38.13
19890;BME280;10107;51.198;6.824;2023-04-26T10:07:01;-21720.75;;;15.40;36.06
19890;BME280;10107;51.198;6.824;2023-04-26T10:11:05;-21711.94;;;15.06;37.13
19890;BME280;10107;51.198;6.824;2023-04-26T10:15:08;-21704.69;;;14.78;38.22
19890;BME280;10107;51.198;6.824;2023-04-26T10:19:12;-21696.53;;;14.46;38.93
19890;BME280;10107;51.198;6.824;2023-04-26T10:23:17;-21700.22;;;14.60;37.49
19890;BME280;10107;51.198;6.824;2023-04-26T10:27:48;-21744.78;;;16.34;35.54
19890;BME280;10107;51.198;6.824;2023-04-26T10:32:07;-21810.50;;;18.92;31.14
19890;BME280;10107;51.198;6.824;2023-04-26T10:36:12;-21799.13;;;18.47;31.57
19890;BME280;10107;51.198;6.824;2023-04-26T10:40:24;-21769.16;;;17.30;34.21
19890;BME280;10107;51.198;6.824;2023-04-26T10:44:37;-21745.56;;;16.37;36.26
19890;BME280;10107;51.198;6.824;2023-04-26T10:48:39;-21715.22;;;15.19;36.68
19890;BME280;10107;51.198;6.824;2023-04-26T10:53:05;-21703.50;;;14.73;39.06
19890;BME280;10107;51.198;6.824;2023-04-26T10:57:08;-21725.19;;;15.58;38.21
19890;BME280;10107;51.198;6.824;2023-04-26T11:01:15;-21750.41;;;16.56;35.24
19890;BME280;10107;51.198;6.824;2023-04-26T11:05:38;-21741.75;;;16.22;35.36
19890;BME280;10107;51.198;6.824;2023-04-26T11:09:48;-21734.94;;;15.96;35.79
19890;BME280;10107;51.198;6.824;2023-04-26T11:13:50;-21734.41;;;15.94;35.73
19890;BME280;10107;51.198;6.824;2023-04-26T11:17:51;-21724.69;;;15.56;35.86
19890;BME280;10107;51.198;6.824;2023-04-26T11:21:53;-21725.88;;;15.60;36.19
19890;BME280;10107;51.198;6.824;2023-04-26T11:25:57;-21719.16;;;15.34;37.09
19890;BME280;10107;51.198;6.824;2023-04-26T11:30:01;-21728.88;;;15.72;36.79
19890;BME280;10107;51.198;6.824;2023-04-26T11:34:04;-21736.50;;;16.02;34.45
19890;BME280;10107;51.198;6.824;2023-04-26T11:38:06;-21750.41;;;16.56;36.69
19890;BME280;10107;51.198;6.824;2023-04-26T11:42:10;-21771.38;;;17.38;34.87
19890;BME280;10107;51.198;6.824;2023-04-26T11:46:12;-21805.28;;;18.71;30.48
19890;BME280;10107;51.198;6.824;2023-04-26T11:50:14;-21825.63;;;19.51;29.66
19890;BME280;10107;51.198;6.824;2023-04-26T11:54:28;-21834.13;;;19.85;28.80
19890;BME280;10107;51.198;6.824;2023-04-26T11:58:32;-21842.72;;;20.18;28.30
19890;BME280;10107;51.198;6.824;2023-04-26T12:02:34;-21852.09;;;20.55;27.18
19890;BME280;10107;51.198;6.824;2023-04-26T12:06:41;-21848.31;;;20.41;25.40
19890;BME280;10107;51.198;6.824;2023-04-26T12:10:45;-21830.34;;;19.70;26.58
19890;BME280;10107;51.198;6.824;2023-04-26T12:14:48;-21801.34;;;18.56;29.06
19890;BME280;10107;51.198;6.824;2023-04-26T12:18:50;-21790.88;;;18.15;30.84
19890;BME280;10107;51.198;6.824;2023-04-26T12:23:07;-21769.56;;;17.31;32.63
19890;BME280;10107;51.198;6.824;2023-04-26T12:27:19;-21764.44;;;17.11;33.54
19890;BME280;10107;51.198;6.824;2023-04-26T12:31:22;-21759.72;;;16.93;34.06
19890;BME280;10107;51.198;6.824;2023-04-26T12:35:24;-21745.56;;;16.37;34.02
19890;BME280;10107;51.198;6.824;2023-04-26T12:39:26;-21735.84;;;15.99;33.65
19890;BME280;10107;51.198;6.824;2023-04-26T12:43:28;-21725.06;;;15.57;35.43
19890;BME280;10107;51.198;6.824;2023-04-26T12:47:31;-21725.72;;;15.60;34.09
19890;BME280;10107;51.198;6.824;2023-04-26T12:51:32;-21725.47;;;15.59;34.49
19890;BME280;10107;51.198;6.824;2023-04-26T12:55:34;-21735.84;;;15.99;32.65
19890;BME280;10107;51.198;6.824;2023-04-26T12:59:36;-21763.00;;;17.06;32.36
19890;BME280;10107;51.198;6.824;2023-04-26T13:03:39;-21784.09;;;17.88;32.26
19890;BME280;10107;51.198;6.824;2023-04-26T13:07:42;-21774.78;;;17.52;32.11
19890;BME280;10107;51.198;6.824;2023-04-26T13:11:44;-21772.31;;;17.42;31.17
19890;BME280;10107;51.198;6.824;2023-04-26T13:15:46;-21754.59;;;16.73;33.23
19890;BME280;10107;51.198;6.824;2023-04-26T13:19:49;-21738.34;;;16.09;32.16
19890;BME280;10107;51.198;6.824;2023-04-26T13:23:52;-21723.38;;;15.51;32.48
19890;BME280;10107;51.198;6.824;2023-04-26T13:27:53;-21715.22;;;15.19;34.42
19890;BME280;10107;51.198;6.824;2023-04-26T13:31:55;-21709.97;;;14.98;33.75
19890;BME280;10107;51.198;6.824;2023-04-26T13:35:59;-21716.94;;;15.25;34.13
19890;BME280;10107;51.198;6.824;2023-04-26T13:40:01;-21733.75;;;15.91;34.68
19890;BME280;10107;51.198;6.824;2023-04-26T13:44:03;-21737.94;;;16.08;33.85
19890;BME280;10107;51.198;6.824;2023-04-26T13:48:05;-21735.59;;;15.98;32.46
19890;BME280;10107;51.198;6.824;2023-04-26T13:52:08;-21741.88;;;16.23;32.58
19890;BME280;10107;51.198;6.824;2023-04-26T13:56:10;-21743.47;;;16.29;31.46
19890;BME280;10107;51.198;6.824;2023-04-26T14:00:12;-21744.38;;;16.33;31.56
19890;BME280;10107;51.198;6.824;2023-04-26T14:04:14;-21747.38;;;16.44;31.50
19890;BME280;10107;51.198;6.824;2023-04-26T14:08:17;-21756.44;;;16.80;31.39
19890;BME280;10107;51.198;6.824;2023-04-26T14:12:19;-21771.25;;;17.38;32.50
19890;BME280;10107;51.198;6.824;2023-04-26T14:16:21;-21777.28;;;17.61;30.39
19890;BME280;10107;51.198;6.824;2023-04-26T14:20:23;-21781.97;;;17.80;31.03
19890;BME280;10107;51.198;6.824;2023-04-26T14:24:26;-21766.94;;;17.21;31.01
19890;BME280;10107;51.198;6.824;2023-04-26T14:28:28;-21750.28;;;16.56;31.02
19890;BME280;10107;51.198;6.824;2023-04-26T14:32:30;-21743.84;;;16.31;33.79
19890;BME280;10107;51.198;6.824;2023-04-26T14:36:32;-21739.53;;;16.14;32.69
19890;BME280;10107;51.198;6.824;2023-04-26T14:40:36;-21732.28;;;15.86;31.88
19890;BME280;10107;51.198;6.824;2023-04-26T14:44:37;-21726.78;;;15.64;33.34
19890;BME280;10107;51.198;6.824;2023-04-26T14:48:39;-21717.06;;;15.26;33.10
19890;BME280;10107;51.198;6.824;2023-04-26T14:52:42;-21703.66;;;14.74;33.69
19890;BME280;10107;51.198;6.824;2023-04-26T14:56:46;-21704.56;;;14.77;33.16
19890;BME280;10107;51.198;6.824;2023-04-26T15:00:47;-21700.09;;;14.60;33.11
19890;BME280;10107;51.198;6.824;2023-04-26T15:04:49;-21694.28;;;14.37;35.40
19890;BME280;10107;51.198;6.824;2023-04-26T15:08:51;-21697.97;;;14.52;34.39
19890;BME280;10107;51.198;6.824;2023-04-26T15:12:54;-21697.97;;;14.52;33.83
19890;BME280;10107;51.198;6.824;2023-04-26T15:16:55;-21700.09;;;14.60;34.22
19890;BME280;10107;51.198;6.824;2023-04-26T15:20:57;-21696.28;;;14.45;34.44
19890;BME280;10107;51.198;6.824;2023-04-26T15:24:59;-21683.22;;;13.94;35.41
19890;BME280;10107;51.198;6.824;2023-04-26T15:29:02;-21676.50;;;13.68;36.78
19890;BME280;10107;51.198;6.824;2023-04-26T15:33:03;-21671.38;;;13.48;36.32
19890;BME280;10107;51.198;6.824;2023-04-26T15:37:05;-21676.25;;;13.67;36.06
19890;BME280;10107;51.198;6.824;2023-04-26T15:41:07;-21688.25;;;14.14;35.99
19890;BME280;10107;51.198;6.824;2023-04-26T15:45:10;-21685.59;;;14.03;35.68
19890;BME280;10107;51.198;6.824;2023-04-26T15:49:12;-21677.97;;;13.74;35.74
19890;BME280;10107;51.198;6.824;2023-04-26T15:53:14;-21667.56;;;13.33;35.15
19890;BME280;10107;51.198;6.824;2023-04-26T15:57:15;-21666.88;;;13.31;36.17
19890;BME280;10107;51.198;6.824;2023-04-26T16:01:19;-21661.59;;;13.10;36.09
19890;BME280;10107;51.198;6.824;2023-04-26T16:05:20;-21654.88;;;12.84;35.98
19890;BME280;10107;51.198;6.824;2023-04-26T16:09:22;-21653.81;;;12.80;36.36
19890;BME280;10107;51.198;6.824;2023-04-26T16:13:23;-21648.53;;;12.59;36.47
19890;BME280;10107;51.198;6.824;2023-04-26T16:17:26;-21644.97;;;12.45;36.77
19890;BME280;10107;51.198;6.824;2023-04-26T16:21:28;-21645.78;;;12.48;37.71
19890;BME280;10107;51.198;6.824;2023-04-26T16:25:30;-21648.28;;;12.58;37.87
19890;BME280;10107;51.198;6.824;2023-04-26T16:29:31;-21646.56;;;12.52;37.51
19890;BME280;10107;51.198;6.824;2023-04-26T16:33:34;-21643.13;;;12.38;37.69
19890;BME280;10107;51.198;6.824;2023-04-26T16:37:36;-21642.06;;;12.34;38.37
19890;BME280;10107;51.198;6.824;2023-04-26T16:41:40;-21632.81;;;11.98;38.60
19890;BME280;10107;51.198;6.824;2023-04-26T16:45:42;-21631.50;;;11.93;40.17
19890;BME280;10107;51.198;6.824;2023-04-26T16:49:44;-21629.38;;;11.85;38.62
19890;BME280;10107;51.198;6.824;2023-04-26T16:53:46;-21631.25;;;11.92;39.21
19890;BME280;10107;51.198;6.824;2023-04-26T16:57:48;-21630.56;;;11.89;39.71
19890;BME280;10107;51.198;6.824;2023-04-26T17:01:50;-21630.97;;;11.91;38.98
19890;BME280;10107;51.198;6.824;2023-04-26T17:05:53;-21632.69;;;11.98;38.69
19890;BME280;10107;51.198;6.824;2023-04-26T17:09:55;-21633.50;;;12.01;39.47
19890;BME280;10107;51.198;6.824;2023-04-26T17:13:57;-21633.63;;;12.01;38.39
19890;BME280;10107;51.198;6.824;2023-04-26T17:17:58;-21630.19;;;11.88;38.74
19890;BME280;10107;51.198;6.824;2023-04-26T17:22:02;-21627.41;;;11.77;40.66
19890;BME280;10107;51.198;6.824;2023-04-26T17:26:05;-21622.38;;;11.58;40.62
19890;BME280;10107;51.198;6.824;2023-04-26T17:30:07;-21615.63;;;11.32;42.39
19890;BME280;10107;51.198;6.824;2023-04-26T17:34:09;-21609.69;;;11.08;42.58
19890;BME280;10107;51.198;6.824;2023-04-26T17:38:12;-21606.22;;;10.95;43.52
19890;BME280;10107;51.198;6.824;2023-04-26T17:42:14;-21604.13;;;10.87;44.01
19890;BME280;10107;51.198;6.824;2023-04-26T17:46:16;-21601.06;;;10.75;44.77
19890;BME280;10107;51.198;6.824;2023-04-26T17:50:17;-21597.22;;;10.60;45.30
19890;BME280;10107;51.198;6.824;2023-04-26T17:54:21;-21596.56;;;10.58;44.95
19890;BME280;10107;51.198;6.824;2023-04-26T17:58:23;-21594.97;;;10.52;44.92
19890;BME280;10107;51.198;6.824;2023-04-26T18:02:24;-21592.34;;;10.41;45.09
19890;BME280;10107;51.198;6.824;2023-04-26T18:06:26;-21589.81;;;10.32;45.92
19890;BME280;10107;51.198;6.824;2023-04-26T18:10:29;-21587.03;;;10.21;45.53
19890;BME280;10107;51.198;6.824;2023-04-26T18:14:31;-21585.16;;;10.14;46.10
19890;BME280;10107;51.198;6.824;2023-04-26T18:18:33;-21583.72;;;10.08;47.73
19890;BME280;10107;51.198;6.824;2023-04-26T18:22:35;-21582.13;;;10.02;47.41
19890;BME280;10107;51.198;6.824;2023-04-26T18:26:38;-21578.16;;;9.86;47.44
19890;BME280;10107;51.198;6.824;2023-04-26T18:30:40;-21574.81;;;9.74;48.08
19890;BME280;10107;51.198;6.824;2023-04-26T18:34:43;-21569.91;;;9.55;47.85
19890;BME280;10107;51.198;6.824;2023-04-26T18:38:45;-21568.06;;;9.47;48.53
19890;BME280;10107;51.198;6.824;2023-04-26T18:42:48;-21565.81;;;9.39;50.31
19890;BME280;10107;51.198;6.824;2023-04-26T18:46:51;-21564.75;;;9.35;50.11
19890;BME280;10107;51.198;6.824;2023-04-26T18:50:54;-21563.81;;;9.31;49.99
19890;BME280;10107;51.198;6.824;2023-04-26T18:54:56;-21562.63;;;9.26;51.36
19890;BME280;10107;51.198;6.824;2023-04-26T18:59:00;-21561.44;;;9.22;51.49
19890;BME280;10107;51.198;6.824;2023-04-26T19:03:01;-21559.84;;;9.16;51.17
19890;BME280;10107;51.198;6.824;2023-04-26T19:07:03;-21558.13;;;9.09;51.91
19890;BME280;10107;51.198;6.824;2023-04-26T19:11:06;-21557.31;;;9.06;52.54
19890;BME280;10107;51.198;6.824;2023-04-26T19:15:10;-21557.19;;;9.05;52.90
19890;BME280;10107;51.198;6.824;2023-04-26T19:19:15;-21556.25;;;9.02;53.47
19890;BME280;10107;51.198;6.824;2023-04-26T19:23:17;-21555.44;;;8.99;52.86
19890;BME280;10107;51.198;6.824;2023-04-26T19:27:19;-21554.38;;;8.95;53.50
19890;BME280;10107;51.198;6.824;2023-04-26T19:31:22;-21553.19;;;8.90;53.94
19890;BME280;10107;51.198;6.824;2023-04-26T19:35:24;-21552.00;;;8.85;54.34
19890;BME280;10107;51.198;6.824;2023-04-26T19:39:26;-21550.28;;;8.79;54.54
19890;BME280;10107;51.198;6.824;2023-04-26T19:43:28;-21549.88;;;8.77;54.28
19890;BME280;10107;51.198;6.824;2023-04-26T19:47:31;-21549.75;;;8.77;54.29
19890;BME280;10107;51.198;6.824;2023-04-26T19:51:33;-21548.41;;;8.71;54.87
19890;BME280;10107;51.198;6.824;2023-04-26T19:55:36;-21547.22;;;8.67;55.24
19890;BME280;10107;51.198;6.824;2023-04-26T19:59:38;-21546.56;;;8.64;55.87
19890;BME280;10107;51.198;6.824;2023-04-26T20:03:42;-21546.41;;;8.64;55.27
19890;BME280;10107;51.198;6.824;2023-04-26T20:07:45;-21545.50;;;8.60;54.88
19890;BME280;10107;51.198;6.824;2023-04-26T20:11:47;-21545.09;;;8.59;55.13
19890;BME280;10107;51.198;6.824;2023-04-26T20:15:50;-21544.16;;;8.55;55.84
19890;BME280;10107;51.198;6.824;2023-04-26T20:19:55;-21544.28;;;8.56;56.03
19890;BME280;10107;51.198;6.824;2023-04-26T20:23:59;-21544.28;;;8.56;56.07
19890;BME280;10107;51.198;6.824;2023-04-26T20:28:01;-21543.38;;;8.52;56.84
19890;BME280;10107;51.198;6.824;2023-04-26T20:32:03;-21542.97;;;8.50;57.04
19890;BME280;10107;51.198;6.824;2023-04-26T20:36:07;-21541.38;;;8.44;57.27
19890;BME280;10107;51.198;6.824;2023-04-26T20:40:09;-21540.56;;;8.41;57.51
19890;BME280;10107;51.198;6.824;2023-04-26T20:44:11;-21539.38;;;8.37;58.12
19890;BME280;10107;51.198;6.824;2023-04-26T20:48:13;-21538.19;;;8.32;58.88
19890;BME280;10107;51.198;6.824;2023-04-26T20:52:17;-21537.25;;;8.28;59.45
19890;BME280;10107;51.198;6.824;2023-04-26T20:56:23;-21535.13;;;8.20;59.06
19890;BME280;10107;51.198;6.824;2023-04-26T21:00:25;-21534.19;;;8.17;60.47
19890;BME280;10107;51.198;6.824;2023-04-26T21:04:27;-21533.25;;;8.13;61.45
19890;BME280;10107;51.198;6.824;2023-04-26T21:08:30;-21532.84;;;8.11;61.42
19890;BME280;10107;51.198;6.824;2023-04-26T21:12:31;-21531.78;;;8.07;62.18
19890;BME280;10107;51.198;6.824;2023-04-26T21:16:33;-21530.72;;;8.03;62.58